Time;durP1;ratioP1;P1;durP2;ratioP2;P2;SDS_P1;SDS_P2;PMS_P1;PMS_P2;Temp;Humidity;BMP_temperature;BMP_pressure;BME280_temperature;BME280_humidity;BME280_pressure;Samples;Min_cycle;Max_cycle;Signal;HPM_P1;HPM_P2
2022/07/17 00:00:42;;;;;;;4.87;3.40;;;16.30;1.00;;;;;;5050041;28;20440;-58
2022/07/17 00:03:09;;;;;;;5.90;2.83;;;16.20;1.00;;;;;;5051983;28;20442;-58
2022/07/17 00:05:35;;;;;;;5.63;3.43;;;16.30;1.00;;;;;;5052788;28;20450;-58
2022/07/17 00:08:00;;;;;;;4.27;3.77;;;16.20;1.00;;;;;;5051534;28;20473;-60
2022/07/17 00:10:26;;;;;;;7.13;3.83;;;16.20;1.00;;;;;;5050605;28;20623;-58
2022/07/17 00:12:52;;;;;;;6.10;4.30;;;16.20;1.00;;;;;;5052334;28;20180;-58
2022/07/17 00:15:19;;;;;;;7.30;3.40;;;16.20;1.00;;;;;;5052797;28;20196;-58
2022/07/17 00:17:44;;;;;;;6.67;4.30;;;16.20;1.00;;;;;;5050266;28;20915;-58
2022/07/17 00:20:11;;;;;;;4.13;3.73;;;16.10;1.00;;;;;;5050729;28;20529;-57
2022/07/17 00:22:36;;;;;;;5.93;3.37;;;16.00;1.00;;;;;;5050552;28;20196;-58
2022/07/17 00:25:03;;;;;;;5.23;3.40;;;15.90;1.00;;;;;;5051726;28;21012;-57
2022/07/17 00:27:29;;;;;;;6.80;3.37;;;15.90;1.00;;;;;;5048955;28;20215;-58
2022/07/17 00:29:55;;;;;;;6.43;4.23;;;15.80;1.00;;;;;;5046301;28;20489;-59
2022/07/17 00:32:23;;;;;;;7.00;3.97;;;15.80;1.00;;;;;;5052269;28;20200;-58
2022/07/17 00:34:49;;;;;;;5.60;3.33;;;15.80;1.00;;;;;;5049683;28;20214;-59
2022/07/17 00:37:14;;;;;;;5.10;2.67;;;15.70;1.00;;;;;;5053393;28;20948;-58
2022/07/17 00:39:40;;;;;;;6.67;3.17;;;15.60;1.00;;;;;;5051077;28;20439;-58
2022/07/17 00:42:09;;;;;;;4.40;3.17;;;15.70;1.00;;;;;;5050484;28;20241;-58
2022/07/17 00:44:35;;;;;;;5.20;3.30;;;15.60;1.00;;;;;;5049513;28;20184;-58
2022/07/17 00:47:01;;;;;;;5.40;3.40;;;15.60;1.00;;;;;;5050856;28;20426;-58
2022/07/17 00:49:26;;;;;;;4.87;3.00;;;15.60;1.00;;;;;;5052251;28;20548;-58
2022/07/17 00:51:52;;;;;;;5.23;3.23;;;15.50;1.00;;;;;;5050048;28;20255;-58
2022/07/17 00:54:18;;;;;;;4.87;3.43;;;15.50;1.00;;;;;;5050757;28;20199;-58
2022/07/17 00:56:46;;;;;;;4.90;3.37;;;15.50;1.00;;;;;;5047679;28;20302;-58
2022/07/17 00:59:14;;;;;;;6.37;4.27;;;15.50;1.00;;;;;;5050767;28;20538;-58
2022/07/17 01:01:40;;;;;;;4.70;3.10;;;15.50;1.00;;;;;;5047600;28;20435;-58
2022/07/17 01:04:05;;;;;;;5.70;4.13;;;15.40;1.00;;;;;;5049655;28;21041;-58
2022/07/17 01:06:31;;;;;;;6.70;4.83;;;15.40;1.00;;;;;;5050474;28;20572;-58
2022/07/17 01:08:56;;;;;;;6.20;4.70;;;15.50;1.00;;;;;;5049173;28;20534;-57
2022/07/17 01:11:22;;;;;;;5.60;4.17;;;15.30;1.00;;;;;;5050834;28;20196;-58
2022/07/17 01:13:48;;;;;;;11.80;5.00;;;15.20;1.00;;;;;;5048763;28;20192;-59
2022/07/17 01:16:14;;;;;;;9.03;4.10;;;15.10;1.00;;;;;;5049178;28;20208;-58
2022/07/17 01:18:41;;;;;;;5.13;4.00;;;15.10;1.00;;;;;;5049968;28;20197;-58
2022/07/17 01:21:08;;;;;;;6.50;4.17;;;15.20;1.00;;;;;;5050263;28;20446;-58
2022/07/17 01:23:33;;;;;;;9.17;4.60;;;15.20;1.00;;;;;;5050841;28;20446;-58
2022/07/17 01:25:59;;;;;;;5.30;4.30;;;15.20;1.00;;;;;;5050938;28;20456;-57
2022/07/17 01:28:25;;;;;;;7.73;4.57;;;15.20;1.00;;;;;;5050451;28;20397;-58
2022/07/17 01:30:52;;;;;;;6.07;4.17;;;15.20;1.00;;;;;;5042964;28;20577;-59
2022/07/17 01:33:18;;;;;;;7.10;3.73;;;15.20;1.00;;;;;;5046778;28;20272;-58
2022/07/17 01:35:44;;;;;;;7.13;3.87;;;15.30;1.00;;;;;;5049659;28;20482;-58
2022/07/17 01:38:10;;;;;;;4.33;3.57;;;15.20;1.00;;;;;;5048425;28;20465;-58
2022/07/17 01:40:36;;;;;;;4.53;2.97;;;15.20;1.00;;;;;;5049294;28;20450;-58
2022/07/17 01:43:01;;;;;;;5.20;3.37;;;15.10;1.00;;;;;;5048073;28;20231;-58
2022/07/17 01:45:28;;;;;;;3.80;3.17;;;15.10;1.00;;;;;;5049584;28;20196;-58
2022/07/17 01:47:54;;;;;;;5.63;3.20;;;15.20;1.00;;;;;;5053307;28;20624;-58
2022/07/17 01:50:19;;;;;;;3.90;3.50;;;15.10;1.00;;;;;;5049339;28;20456;-58
2022/07/17 01:52:45;;;;;;;3.87;2.87;;;15.00;1.00;;;;;;5047724;28;20192;-58
2022/07/17 01:55:14;;;;;;;4.87;3.60;;;15.00;1.00;;;;;;5048209;28;20212;-58
2022/07/17 01:57:40;;;;;;;4.00;2.93;;;14.90;1.00;;;;;;5048266;28;20438;-59
2022/07/17 02:00:08;;;;;;;6.60;3.73;;;14.90;1.00;;;;;;5049351;28;20780;-57
2022/07/17 02:02:35;;;;;;;3.90;3.10;;;14.90;1.00;;;;;;5048110;28;20492;-58
2022/07/17 02:05:00;;;;;;;3.70;2.93;;;15.00;1.00;;;;;;5050080;28;20796;-58
2022/07/17 02:07:26;;;;;;;11.90;3.83;;;15.00;1.00;;;;;;5048748;28;20511;-58
2022/07/17 02:09:52;;;;;;;5.40;3.40;;;15.00;1.00;;;;;;5049252;28;20545;-58
2022/07/17 02:12:18;;;;;;;4.13;2.30;;;15.10;1.00;;;;;;5046982;28;20188;-58
2022/07/17 02:14:43;;;;;;;3.40;2.93;;;15.00;1.00;;;;;;5049113;28;20188;-58
2022/07/17 02:17:10;;;;;;;5.60;2.87;;;15.00;1.00;;;;;;5048507;28;20191;-57
2022/07/17 02:19:37;;;;;;;8.07;2.03;;;14.90;1.00;;;;;;5049336;28;20188;-58
2022/07/17 02:22:03;;;;;;;3.60;2.30;;;14.80;1.00;;;;;;5049130;28;20443;-58
2022/07/17 02:24:28;;;;;;;2.97;2.27;;;14.80;1.00;;;;;;5049301;28;20470;-57
2022/07/17 02:26:54;;;;;;;4.13;2.20;;;14.80;1.00;;;;;;5040913;28;20549;-57
2022/07/17 02:29:19;;;;;;;4.40;1.83;;;14.80;1.00;;;;;;5046888;28;20214;-58
2022/07/17 02:31:45;;;;;;;3.20;1.70;;;14.80;1.00;;;;;;5049078;28;20597;-58
2022/07/17 02:34:11;;;;;;;4.97;1.90;;;14.70;1.00;;;;;;5048600;28;20202;-58
2022/07/17 02:36:36;;;;;;;4.27;2.17;;;14.70;1.00;;;;;;5049216;28;20211;-57
2022/07/17 02:39:02;;;;;;;8.03;2.77;;;14.60;1.00;;;;;;5047784;28;20243;-58
2022/07/17 02:41:28;;;;;;;4.00;2.87;;;14.60;1.00;;;;;;5049299;28;20180;-58
2022/07/17 02:43:53;;;;;;;4.37;2.23;;;14.50;1.00;;;;;;5047567;28;20605;-59
2022/07/17 02:46:19;;;;;;;5.53;2.60;;;14.30;1.00;;;;;;5047986;28;20192;-58
2022/07/17 02:48:44;;;;;;;3.20;2.00;;;14.30;1.00;;;;;;5046832;28;20206;-58
2022/07/17 02:51:10;;;;;;;4.33;2.40;;;14.10;1.00;;;;;;5047887;28;20646;-58
2022/07/17 02:53:36;;;;;;;6.37;2.60;;;14.10;1.00;;;;;;5048886;28;20585;-57
2022/07/17 02:56:04;;;;;;;5.03;2.33;;;14.10;1.00;;;;;;5050476;28;20298;-57
2022/07/17 02:58:30;;;;;;;4.40;2.40;;;14.10;1.00;;;;;;5052016;28;20546;-58
2022/07/17 03:00:55;;;;;;;4.47;2.33;;;14.10;1.00;;;;;;5048573;28;20442;-57
2022/07/17 03:03:21;;;;;;;2.63;2.13;;;14.10;1.00;;;;;;5049006;28;20184;-58
2022/07/17 03:05:47;;;;;;;5.20;2.17;;;14.10;1.00;;;;;;5047896;28;20641;-57
2022/07/17 03:08:13;;;;;;;5.20;2.30;;;14.00;1.00;;;;;;5047611;28;20678;-58
2022/07/17 03:10:39;;;;;;;2.13;1.80;;;14.00;1.00;;;;;;5048757;28;20465;-58
2022/07/17 03:13:06;;;;;;;6.33;1.83;;;13.90;1.00;;;;;;5048454;28;20213;-57
2022/07/17 03:15:32;;;;;;;4.93;2.30;;;13.90;1.00;;;;;;5048444;28;20565;-58
2022/07/17 03:17:57;;;;;;;4.37;2.30;;;13.80;1.00;;;;;;5049009;28;20449;-59
2022/07/17 03:20:23;;;;;;;3.53;2.00;;;13.90;1.00;;;;;;5050388;28;20454;-58
2022/07/17 03:22:49;;;;;;;2.80;1.70;;;13.80;1.00;;;;;;5048864;28;20172;-58
2022/07/17 03:25:14;;;;;;;5.53;2.43;;;13.90;1.00;;;;;;5052615;28;20630;-58
2022/07/17 03:27:40;;;;;;;2.10;1.80;;;13.90;1.00;;;;;;5052476;28;20192;-58
2022/07/17 03:30:07;;;;;;;5.33;2.40;;;13.90;1.00;;;;;;5050912;28;20224;-57
2022/07/17 03:32:32;;;;;;;6.20;2.43;;;13.90;1.00;;;;;;5050431;28;20592;-57
2022/07/17 03:34:58;;;;;;;3.97;2.23;;;13.90;1.00;;;;;;5051097;28;20474;-58
2022/07/17 03:37:24;;;;;;;2.80;2.57;;;;;;;;;;5046184;28;20263;-58
2022/07/17 03:39:50;;;;;;;2.70;2.00;;;14.20;1.00;;;;;;5051375;28;20180;-58
2022/07/17 03:42:16;;;;;;;6.00;2.60;;;;;;;;;;5051696;28;20446;-58
2022/07/17 03:44:41;;;;;;;3.13;2.10;;;14.60;1.00;;;;;;5059536;28;20594;-58
2022/07/17 03:47:07;;;;;;;4.17;2.27;;;14.80;1.00;;;;;;5052532;28;20471;-58
2022/07/17 03:49:32;;;;;;;3.53;2.57;;;14.90;1.00;;;;;;5065861;28;20180;-59
2022/07/17 03:51:58;;;;;;;6.67;2.60;;;14.90;1.00;;;;;;5051787;28;20267;-57
2022/07/17 03:54:24;;;;;;;2.40;2.20;;;14.70;1.00;;;;;;5052145;28;20605;-57
2022/07/17 03:56:49;;;;;;;4.43;2.60;;;14.60;1.00;;;;;;5051836;28;20203;-58
2022/07/17 03:59:15;;;;;;;2.23;1.90;;;14.60;1.00;;;;;;5051750;28;20267;-58
2022/07/17 04:01:41;;;;;;;5.43;2.63;;;14.50;1.00;;;;;;5052063;28;20183;-58
2022/07/17 04:04:06;;;;;;;7.13;2.47;;;14.50;1.00;;;;;;5052091;28;20185;-58
2022/07/17 04:06:32;;;;;;;4.17;2.20;;;14.40;1.00;;;;;;5051375;28;20188;-57
2022/07/17 04:08:57;;;;;;;5.03;2.63;;;14.30;1.00;;;;;;5051821;28;20629;-56
2022/07/17 04:11:23;;;;;;;5.50;2.90;;;14.20;1.00;;;;;;5048312;28;20191;-58
2022/07/17 04:13:49;;;;;;;3.13;2.57;;;14.30;1.00;;;;;;5052120;28;20184;-59
2022/07/17 04:16:14;;;;;;;3.43;3.03;;;14.30;1.00;;;;;;5052031;28;20223;-58
2022/07/17 04:18:40;;;;;;;4.53;3.23;;;14.30;1.00;;;;;;5051788;28;20553;-58
2022/07/17 04:21:08;;;;;;;3.23;2.50;;;14.30;1.00;;;;;;5051870;28;20196;-58
2022/07/17 04:23:35;;;;;;;4.00;2.80;;;14.30;1.00;;;;;;5050583;28;20192;-58
2022/07/17 04:26:03;;;;;;;4.80;2.30;;;14.30;1.00;;;;;;5048436;28;20523;-57
2022/07/17 04:28:29;;;;;;;4.80;2.90;;;14.30;1.00;;;;;;5050373;28;20441;-58
2022/07/17 04:30:55;;;;;;;2.73;2.43;;;14.30;1.00;;;;;;5049629;28;20481;-58
2022/07/17 04:33:20;;;;;;;7.93;3.20;;;14.30;1.00;;;;;;5050169;28;20218;-58
2022/07/17 04:35:46;;;;;;;5.83;2.37;;;14.40;1.00;;;;;;5048830;28;20220;-57
2022/07/17 04:38:12;;;;;;;3.20;2.80;;;14.30;1.00;;;;;;5051114;28;20191;-58
2022/07/17 04:40:40;;;;;;;6.73;2.33;;;14.50;1.00;;;;;;5048356;28;20184;-58
2022/07/17 04:43:06;;;;;;;3.20;2.23;;;14.50;1.00;;;;;;5050321;28;20188;-58
2022/07/17 04:45:32;;;;;;;4.53;3.00;;;14.60;1.00;;;;;;5049841;28;20477;-57
2022/07/17 04:47:58;;;;;;;2.87;2.20;;;14.60;1.00;;;;;;5051304;28;20851;-57
2022/07/17 04:50:24;;;;;;;4.13;2.50;;;14.60;1.00;;;;;;5045807;28;20481;-57
2022/07/17 04:52:50;;;;;;;3.40;2.13;;;14.60;1.00;;;;;;5050181;28;20240;-57
2022/07/17 04:55:16;;;;;;;5.00;2.40;;;14.70;1.00;;;;;;5049321;28;21142;-58
2022/07/17 04:57:42;;;;;;;4.80;2.30;;;14.80;1.00;;;;;;5050648;28;20237;-57
2022/07/17 05:00:09;;;;;;;5.50;2.90;;;14.90;1.00;;;;;;5050076;28;20442;-58
2022/07/17 05:02:35;;;;;;;6.90;2.53;;;15.00;1.00;;;;;;5050180;28;20438;-57
2022/07/17 05:05:03;;;;;;;4.20;2.70;;;15.00;1.00;;;;;;5047959;28;20458;-58
2022/07/17 05:07:29;;;;;;;4.37;2.70;;;15.10;1.00;;;;;;5049657;28;20442;-58
2022/07/17 05:09:56;;;;;;;4.53;2.83;;;15.10;1.00;;;;;;5048910;28;20482;-58
2022/07/17 05:12:22;;;;;;;4.53;2.50;;;15.20;1.00;;;;;;5049533;28;20176;-58
2022/07/17 05:14:47;;;;;;;3.20;2.50;;;15.40;1.00;;;;;;5050013;28;20453;-57
2022/07/17 05:17:13;;;;;;;4.70;2.27;;;15.50;1.00;;;;;;5050195;28;20214;-58
2022/07/17 05:19:39;;;;;;;4.93;2.53;;;15.60;1.00;;;;;;5049508;28;20192;-58
2022/07/17 05:22:04;;;;;;;2.67;2.33;;;15.80;1.00;;;;;;5047383;28;20472;-58
2022/07/17 05:24:30;;;;;;;7.77;3.00;;;15.80;1.00;;;;;;5050402;28;20278;-60
2022/07/17 05:26:56;;;;;;;5.03;2.33;;;15.90;1.00;;;;;;5048771;28;20264;-58
2022/07/17 05:29:22;;;;;;;2.93;2.30;;;16.00;1.00;;;;;;5049573;28;20450;-58
2022/07/17 05:31:48;;;;;;;3.57;2.13;;;16.10;1.00;;;;;;5048738;28;20474;-58
2022/07/17 05:34:14;;;;;;;3.87;2.47;;;16.10;1.00;;;;;;5046478;28;20203;-59
2022/07/17 05:36:39;;;;;;;2.50;1.90;;;16.10;1.00;;;;;;5046630;28;20492;-58
2022/07/17 05:39:05;;;;;;;3.00;2.37;;;16.20;1.00;;;;;;5049750;28;20172;-58
2022/07/17 05:41:31;;;;;;;5.53;2.50;;;16.30;1.00;;;;;;5047795;28;20192;-58
2022/07/17 05:43:56;;;;;;;7.50;2.47;;;16.50;1.00;;;;;;5048392;28;20645;-57
2022/07/17 05:46:22;;;;;;;6.17;2.43;;;16.70;1.00;;;;;;5046974;28;20199;-58
2022/07/17 05:48:47;;;;;;;4.03;2.13;;;16.90;1.00;;;;;;5049988;28;20195;-57
2022/07/17 05:51:13;;;;;;;4.93;2.20;;;17.10;1.00;;;;;;5048496;28;20187;-58
2022/07/17 05:53:38;;;;;;;3.80;2.30;;;17.10;1.00;;;;;;5049799;28;20267;-58
2022/07/17 05:56:04;;;;;;;6.07;2.30;;;17.10;1.00;;;;;;5049377;28;20203;-56
2022/07/17 05:58:30;;;;;;;4.60;2.70;;;17.10;1.00;;;;;;5050015;28;20184;-58
2022/07/17 06:00:55;;;;;;;5.20;2.40;;;17.20;1.00;;;;;;5048064;28;20191;-58
2022/07/17 06:03:21;;;;;;;4.20;2.67;;;17.40;1.00;;;;;;5048379;28;20183;-58
2022/07/17 06:05:46;;;;;;;5.83;2.57;;;17.60;1.00;;;;;;5048750;28;20541;-58
2022/07/17 06:08:12;;;;;;;6.93;1.90;;;17.80;1.00;;;;;;5049491;28;20246;-58
2022/07/17 06:10:38;;;;;;;3.90;1.90;;;18.00;1.00;;;;;;5047244;28;20430;-58
2022/07/17 06:13:04;;;;;;;2.00;1.13;;;18.10;1.00;;;;;;5049367;28;20211;-58
2022/07/17 06:15:30;;;;;;;5.10;1.60;;;18.20;1.00;;;;;;5056118;28;20208;-58
2022/07/17 06:17:59;;;;;;;2.30;1.30;;;18.30;1.00;;;;;;5047547;28;20499;-58
2022/07/17 06:20:25;;;;;;;5.47;1.80;;;18.20;1.00;;;;;;5048153;28;20663;-58
2022/07/17 06:22:50;;;;;;;5.07;1.27;;;17.90;1.00;;;;;;5048955;28;20460;-58
2022/07/17 06:25:16;;;;;;;2.50;1.30;;;17.80;1.00;;;;;;5041543;28;20608;-58
2022/07/17 06:27:42;;;;;;;3.03;1.37;;;17.80;1.00;;;;;;5048942;28;20187;-58
2022/07/17 06:30:13;;;;;;;3.10;1.77;;;18.00;1.00;;;;;;5046886;28;20498;-57
2022/07/17 06:32:39;;;;;;;2.57;1.53;;;18.40;1.00;;;;;;5048673;28;20438;-58
2022/07/17 06:35:05;;;;;;;3.27;1.60;;;18.40;1.00;;;;;;5047215;28;20555;-58
2022/07/17 06:37:31;;;;;;;8.50;1.43;;;18.40;1.00;;;;;;5047798;28;20203;-58
2022/07/17 06:39:56;;;;;;;3.30;1.63;;;18.10;1.00;;;;;;5047285;28;20438;-58
2022/07/17 06:42:22;;;;;;;2.43;1.30;;;18.20;1.00;;;;;;5046645;28;20208;-58
2022/07/17 06:44:47;;;;;;;1.70;1.10;;;18.40;1.00;;;;;;5047245;28;20188;-58
2022/07/17 06:47:13;;;;;;;6.10;1.50;;;18.60;1.00;;;;;;5048792;28;20267;-58
2022/07/17 06:49:39;;;;;;;8.73;1.53;;;18.80;1.00;;;;;;5045267;28;20192;-57
2022/07/17 06:52:05;;;;;;;5.17;1.60;;;18.90;1.00;;;;;;5046694;28;20242;-58
2022/07/17 06:54:30;;;;;;;4.83;1.20;;;18.60;1.00;;;;;;5044829;28;20263;-58
2022/07/17 06:56:56;;;;;;;5.37;1.60;;;18.70;1.00;;;;;;5047594;28;20466;-58
2022/07/17 06:59:22;;;;;;;4.03;1.57;;;19.10;1.00;;;;;;5049977;28;20545;-58
2022/07/17 07:01:48;;;;;;;2.10;1.47;;;19.10;1.00;;;;;;5049456;28;20238;-58
2022/07/17 07:04:13;;;;;;;3.37;1.33;;;19.30;1.00;;;;;;5047400;28;20184;-58
2022/07/17 07:06:39;;;;;;;1.33;1.00;;;19.40;1.00;;;;;;5052260;28;20705;-58
2022/07/17 07:09:05;;;;;;;3.10;1.53;;;19.40;1.00;;;;;;5050335;28;20446;-59
2022/07/17 07:11:31;;;;;;;4.10;1.10;;;19.40;1.00;;;;;;5049254;28;20237;-58
2022/07/17 07:13:56;;;;;;;5.40;1.20;;;19.70;1.00;;;;;;5049189;28;20200;-60
2022/07/17 07:16:22;;;;;;;4.40;1.40;;;19.70;1.00;;;;;;5052199;28;20221;-58
2022/07/17 07:18:47;;;;;;;4.23;1.27;;;20.00;1.00;;;;;;5049264;28;20193;-59
2022/07/17 07:21:13;;;;;;;2.20;1.20;;;20.20;1.00;;;;;;5042147;28;20192;-59
2022/07/17 07:23:39;;;;;;;4.40;1.20;;;20.00;1.00;;;;;;5047368;28;20188;-58
2022/07/17 07:26:04;;;;;;;4.33;1.33;;;20.00;1.00;;;;;;5045914;28;20188;-58
2022/07/17 07:28:30;;;;;;;5.30;1.43;;;19.80;1.00;;;;;;5050781;28;20554;-58
2022/07/17 07:30:56;;;;;;;4.13;1.40;;;19.70;1.00;;;;;;5050261;28;20231;-60
2022/07/17 07:33:21;;;;;;;4.80;1.60;;;19.80;1.00;;;;;;5051966;28;20662;-59
2022/07/17 07:35:47;;;;;;;3.20;1.40;;;20.00;1.00;;;;;;5051330;28;20715;-58
2022/07/17 07:38:13;;;;;;;3.73;1.30;;;20.20;1.00;;;;;;5050699;28;20191;-58
2022/07/17 07:40:39;;;;;;;5.13;1.83;;;20.30;1.00;;;;;;5051815;28;20188;-58
2022/07/17 07:43:04;;;;;;;4.03;1.77;;;20.20;1.00;;;;;;5048619;28;20227;-59
2022/07/17 07:45:31;;;;;;;5.37;1.80;;;20.00;1.00;;;;;;5048465;28;20612;-59
2022/07/17 07:47:57;;;;;;;2.83;1.50;;;20.10;1.00;;;;;;5050187;28;20188;-58
2022/07/17 07:50:24;;;;;;;3.50;1.77;;;20.40;1.00;;;;;;5050422;28;20504;-59
2022/07/17 07:52:50;;;;;;;2.63;1.30;;;20.80;1.00;;;;;;5050622;28;20955;-59
2022/07/17 07:55:17;;;;;;;2.33;1.20;;;21.40;1.00;;;;;;5053184;28;20524;-59
2022/07/17 07:57:43;;;;;;;4.63;1.60;;;21.40;1.00;;;;;;5046854;28;20531;-59
2022/07/17 08:00:11;;;;;;;6.33;1.37;;;21.50;1.00;;;;;;5044712;28;20877;-59
2022/07/17 08:02:36;;;;;;;3.07;1.37;;;21.70;1.00;;;;;;5048845;28;21028;-59
2022/07/17 08:05:02;;;;;;;2.50;1.23;;;21.90;1.00;;;;;;5052712;28;20513;-58
2022/07/17 08:07:29;;;;;;;2.67;1.07;;;22.00;1.00;;;;;;5044821;28;20196;-59
2022/07/17 08:09:55;;;;;;;4.40;1.47;;;21.90;1.00;;;;;;5047912;28;20516;-59
2022/07/17 08:12:21;;;;;;;4.40;1.50;;;21.60;1.00;;;;;;5051436;28;20454;-58
2022/07/17 08:14:47;;;;;;;5.10;1.93;;;21.40;1.00;;;;;;5049626;28;20899;-59
2022/07/17 08:17:13;;;;;;;3.33;1.23;;;21.30;1.00;;;;;;5049154;28;20504;-59
2022/07/17 08:19:39;;;;;;;4.03;1.60;;;21.30;1.00;;;;;;5049532;28;20446;-58
2022/07/17 08:22:04;;;;;;;2.63;1.10;;;20.90;1.00;;;;;;5057669;28;20187;-59
2022/07/17 08:24:30;;;;;;;3.63;1.60;;;20.80;1.00;;;;;;5053110;28;20271;-58
2022/07/17 08:26:56;;;;;;;3.73;1.20;;;21.00;1.00;;;;;;5049967;28;20279;-60
2022/07/17 08:29:22;;;;;;;3.30;1.60;;;20.90;1.00;;;;;;5051094;28;20199;-57
2022/07/17 08:31:48;;;;;;;3.10;1.10;;;21.40;1.00;;;;;;5051350;28;21017;-60
2022/07/17 08:34:14;;;;;;;5.00;1.50;;;21.50;1.00;;;;;;5051695;28;20194;-59
2022/07/17 08:36:40;;;;;;;1.70;1.03;;;21.60;1.00;;;;;;5051066;28;20215;-61
2022/07/17 08:39:06;;;;;;;6.60;1.40;;;21.50;1.00;;;;;;5050231;28;20935;-61
2022/07/17 08:41:36;;;;;;;6.47;1.70;;;21.60;1.00;;;;;;5051195;28;20511;-62
2022/07/17 08:44:03;;;;;;;3.70;1.50;;;21.70;1.00;;;;;;5048842;28;20455;-61
2022/07/17 08:46:30;;;;;;;3.80;1.33;;;21.70;1.00;;;;;;5048525;28;20474;-61
2022/07/17 08:49:00;;;;;;;9.37;2.30;;;21.50;1.00;;;;;;5049608;28;20526;-61
2022/07/17 08:51:26;;;;;;;3.23;1.17;;;21.90;1.00;;;;;;5051497;28;20435;-61
2022/07/17 08:53:53;;;;;;;3.77;1.50;;;22.10;1.00;;;;;;5050821;28;20458;-60
2022/07/17 08:56:18;;;;;;;4.23;1.40;;;22.10;1.00;;;;;;5047128;28;20802;-61
2022/07/17 08:58:44;;;;;;;1.93;1.00;;;22.10;1.00;;;;;;5050837;28;20453;-61
2022/07/17 09:01:10;;;;;;;5.10;1.50;;;21.90;1.00;;;;;;5050797;28;20454;-61
2022/07/17 09:03:36;;;;;;;2.80;1.30;;;21.80;1.00;;;;;;5050869;28;20504;-61
2022/07/17 09:06:05;;;;;;;3.40;1.10;;;21.60;1.00;;;;;;5049523;28;20617;-61
2022/07/17 09:08:32;;;;;;;6.67;2.90;;;22.00;1.00;;;;;;5050808;28;20456;-61
2022/07/17 09:10:58;;;;;;;5.60;1.23;;;22.20;1.00;;;;;;5051425;28;20446;-62
2022/07/17 09:13:26;;;;;;;5.43;1.50;;;22.10;1.00;;;;;;5051102;28;20456;-61
2022/07/17 09:16:18;;;;;;;4.50;1.40;;;21.90;1.00;;;;;;5050004;28;20524;-62
2022/07/17 09:18:49;;;;;;;3.33;1.67;;;22.10;1.00;;;;;;5047341;28;20458;-61
2022/07/17 09:21:26;;;;;;;4.77;1.60;;;22.00;1.00;;;;;;5047942;28;20801;-60
2022/07/17 09:24:03;;;;;;;3.67;1.43;;;22.00;1.00;;;;;;5050292;28;20460;-60
2022/07/17 09:26:29;;;;;;;5.13;1.70;;;22.20;1.00;;;;;;5049629;28;20469;-60
2022/07/17 09:28:55;;;;;;;3.90;1.17;;;22.30;1.00;;;;;;5049752;28;20450;-61
2022/07/17 09:31:29;;;;;;;7.33;1.60;;;22.60;1.00;;;;;;5049764;28;20508;-60
2022/07/17 09:33:55;;;;;;;3.43;1.40;;;22.60;1.00;;;;;;5050595;28;20188;-61
2022/07/17 09:36:22;;;;;;;2.33;1.23;;;22.70;1.00;;;;;;5049166;28;20569;-61
2022/07/17 09:38:52;;;;;;;2.50;1.10;;;22.80;1.00;;;;;;5051414;28;20442;-61
2022/07/17 09:41:20;;;;;;;4.30;1.30;;;23.10;1.00;;;;;;5051720;28;20434;-61
2022/07/17 09:43:52;;;;;;;3.17;1.33;;;23.40;1.00;;;;;;5047940;28;20942;-61
2022/07/17 09:46:30;;;;;;;3.90;1.40;;;23.40;1.00;;;;;;5049981;28;20439;-60
2022/07/17 09:49:01;;;;;;;3.17;1.47;;;23.40;1.00;;;;;;5049601;28;20470;-60
2022/07/17 09:51:32;;;;;;;2.83;1.20;;;23.70;1.00;;;;;;5050097;28;20472;-60
2022/07/17 09:54:00;;;;;;;3.93;1.57;;;23.90;1.00;;;;;;5050111;28;20496;-61
2022/07/17 09:56:28;;;;;;;5.03;1.50;;;23.90;1.00;;;;;;5049875;28;20466;-60
2022/07/17 09:58:59;;;;;;;3.87;1.53;;;24.00;1.00;;;;;;5046573;28;21018;-59
2022/07/17 10:01:25;;;;;;;4.50;1.70;;;23.60;1.00;;;;;;5048806;28;20442;-61
2022/07/17 10:03:53;;;;;;;6.00;2.37;;;23.50;1.00;;;;;;5049868;28;20457;-60
2022/07/17 10:06:20;;;;;;;5.30;1.40;;;23.50;1.00;;;;;;5056361;28;20191;-59
2022/07/17 10:08:46;;;;;;;3.93;1.40;;;23.50;1.00;;;;;;5050418;28;20454;-58
2022/07/17 10:11:15;;;;;;;2.30;1.13;;;23.50;1.00;;;;;;5051277;28;20504;-61
2022/07/17 10:13:45;;;;;;;2.07;1.20;;;23.40;1.00;;;;;;5052014;28;20442;-60
2022/07/17 10:16:11;;;;;;;3.60;1.40;;;23.20;1.00;;;;;;5049415;28;20449;-60
2022/07/17 10:18:43;;;;;;;4.90;1.20;;;23.20;1.00;;;;;;5049024;28;20487;-60
2022/07/17 10:21:17;;;;;;;2.90;1.70;;;23.30;1.00;;;;;;5047214;28;20198;-60
2022/07/17 10:23:47;;;;;;;2.63;1.20;;;23.20;1.00;;;;;;5049356;28;20484;-59
2022/07/17 10:26:13;;;;;;;7.80;1.60;;;23.20;1.00;;;;;;5049899;28;20456;-60
2022/07/17 10:28:44;;;;;;;6.13;1.47;;;23.00;1.00;;;;;;5047776;28;20454;-60
2022/07/17 10:31:21;;;;;;;4.37;1.40;;;22.90;1.00;;;;;;5046837;28;20921;-59
2022/07/17 10:33:58;;;;;;;5.60;1.47;;;22.90;1.00;;;;;;5048517;28;20541;-59
2022/07/17 10:36:37;;;;;;;4.20;1.20;;;22.70;1.00;;;;;;5049160;28;20501;-58
2022/07/17 10:39:20;;;;;;;2.90;1.30;;;22.70;1.00;;;;;;5049085;28;20831;-59
2022/07/17 10:41:57;;;;;;;3.13;1.30;;;22.90;1.00;;;;;;5048037;28;20501;-60
2022/07/17 10:44:30;;;;;;;3.20;1.40;;;23.30;1.00;;;;;;5048697;28;20434;-59
2022/07/17 10:46:56;;;;;;;5.30;1.60;;;23.30;1.00;;;;;;5048672;28;20944;-59
2022/07/17 10:49:26;;;;;;;5.13;1.90;;;23.40;1.00;;;;;;5049286;28;20839;-60
2022/07/17 10:51:52;;;;;;;6.50;1.30;;;23.50;1.00;;;;;;5047760;28;20423;-59
2022/07/17 10:54:32;;;;;;;1.83;1.30;;;23.70;1.00;;;;;;5046439;28;20529;-59
2022/07/17 10:57:01;;;;;;;3.63;1.40;;;23.80;1.00;;;;;;5049660;28;20511;-59
2022/07/17 10:59:26;;;;;;;2.87;1.17;;;24.00;1.00;;;;;;5049240;28;20447;-59
2022/07/17 11:01:58;;;;;;;4.40;1.20;;;24.00;1.00;;;;;;5048315;28;20438;-59
2022/07/17 11:04:24;;;;;;;3.23;1.57;;;24.20;1.00;;;;;;5047752;28;20233;-59
2022/07/17 11:06:49;;;;;;;7.43;4.50;;;24.40;1.00;;;;;;5045750;28;20722;-59
2022/07/17 11:09:15;;;;;;;2.60;1.50;;;24.40;1.00;;;;;;5045246;28;20199;-60
2022/07/17 11:11:46;;;;;;;2.67;1.60;;;24.60;1.00;;;;;;5046681;28;20242;-60
2022/07/17 11:14:25;;;;;;;6.23;1.70;;;24.80;1.00;;;;;;5046761;28;20649;-59
2022/07/17 11:16:59;;;;;;;3.10;1.50;;;24.50;1.00;;;;;;5046949;28;20557;-60
2022/07/17 11:19:27;;;;;;;2.80;1.70;;;24.40;1.00;;;;;;5049727;28;20526;-59
2022/07/17 11:21:54;;;;;;;2.70;1.33;;;24.60;1.00;;;;;;5050040;28;20534;-58
2022/07/17 11:24:19;;;;;;;5.70;1.90;;;24.60;1.00;;;;;;5048288;28;20970;-58
2022/07/17 11:26:49;;;;;;;2.40;1.30;;;24.20;1.00;;;;;;5048661;28;20438;-59
2022/07/17 11:29:15;;;;;;;3.07;1.23;;;24.00;1.00;;;;;;5048377;28;20188;-59
2022/07/17 11:31:41;;;;;;;3.40;1.67;;;23.80;1.00;;;;;;5046199;28;20479;-59
2022/07/17 11:34:11;;;;;;;5.40;1.50;;;23.90;1.00;;;;;;5049428;28;20216;-59
2022/07/17 11:36:44;;;;;;;3.73;1.20;;;24.30;1.00;;;;;;5049128;28;20469;-60
2022/07/17 11:39:15;;;;;;;2.20;1.27;;;24.50;1.00;;;;;;5054665;28;20438;-59
2022/07/17 11:41:43;;;;;;;4.10;1.20;;;24.70;1.00;;;;;;5048891;28;20438;-59
2022/07/17 11:44:17;;;;;;;2.20;1.50;;;24.30;1.00;;;;;;5044492;28;20465;-58
2022/07/17 11:46:46;;;;;;;1.90;1.27;;;24.30;1.00;;;;;;5047118;28;20746;-59
2022/07/17 11:49:24;;;;;;;2.57;1.10;;;24.70;1.00;;;;;;5057583;28;20438;-59
2022/07/17 11:51:49;;;;;;;3.13;1.47;;;24.80;1.00;;;;;;5052199;28;20446;-59
2022/07/17 11:54:16;;;;;;;1.87;1.20;;;24.40;1.00;;;;;;5051468;28;20781;-59
2022/07/17 11:56:50;;;;;;;2.83;1.40;;;24.40;1.00;;;;;;5059064;28;20210;-58
2022/07/17 11:59:30;;;;;;;2.43;1.30;;;24.60;1.00;;;;;;5052391;28;20453;-58
2022/07/17 12:01:56;;;;;;;2.00;1.10;;;24.90;1.00;;;;;;5051424;28;20453;-58
2022/07/17 12:04:22;;;;;;;1.70;1.00;;;24.90;1.00;;;;;;5050675;28;20447;-59
2022/07/17 12:07:02;;;;;;;1.40;1.20;;;25.10;1.00;;;;;;5050807;28;20500;-58
2022/07/17 12:09:29;;;;;;;3.73;1.83;;;25.20;1.00;;;;;;5050955;28;20704;-59
2022/07/17 12:11:54;;;;;;;2.60;1.40;;;25.50;1.00;;;;;;5051183;28;20918;-59
2022/07/17 12:14:20;;;;;;;3.10;1.20;;;25.70;1.00;;;;;;5052631;28;20593;-58
2022/07/17 12:16:47;;;;;;;2.40;1.03;;;25.80;1.00;;;;;;5051521;28;20581;-59
2022/07/17 12:19:15;;;;;;;2.50;1.37;;;25.30;1.00;;;;;;5060305;28;20199;-59
2022/07/17 12:21:56;;;;;;;3.77;1.30;;;24.70;1.00;;;;;;5057869;28;20439;-59
2022/07/17 12:24:33;;;;;;;2.40;1.60;;;24.60;1.00;;;;;;5057456;28;20536;-59
2022/07/17 12:27:02;;;;;;;3.67;1.60;;;24.70;1.00;;;;;;5051241;28;20450;-59
2022/07/17 12:29:28;;;;;;;2.90;1.30;;;25.00;1.00;;;;;;5052019;28;20458;-60
2022/07/17 12:32:26;;;;;;;3.73;1.40;;;25.00;1.00;;;;;;5049702;28;20506;-59
2022/07/17 12:34:53;;;;;;;2.43;1.20;;;24.90;1.00;;;;;;5037646;28;20450;-59
2022/07/17 12:37:20;;;;;;;1.93;0.90;;;24.70;1.00;;;;;;5055451;28;20874;-58
2022/07/17 12:39:47;;;;;;;2.63;1.00;;;24.60;1.00;;;;;;5055722;28;20442;-59
2022/07/17 12:42:14;;;;;;;3.00;1.10;;;24.60;1.00;;;;;;5050609;28;20524;-58
2022/07/17 12:44:41;;;;;;;2.27;0.90;;;24.40;1.00;;;;;;5052313;28;20446;-59
2022/07/17 12:47:07;;;;;;;2.90;1.20;;;24.70;1.00;;;;;;5051004;28;21160;-59
2022/07/17 12:49:33;;;;;;;3.43;1.30;;;24.60;1.00;;;;;;5052187;28;20446;-59
2022/07/17 12:51:58;;;;;;;3.30;1.00;;;24.70;1.00;;;;;;5051791;28;20579;-59
2022/07/17 12:54:24;;;;;;;3.43;1.33;;;24.70;1.00;;;;;;5052331;28;20258;-59
2022/07/17 12:56:50;;;;;;;2.10;1.20;;;24.80;1.00;;;;;;5050995;28;20318;-61